sensor_id;sensor_type;location;lat;lon;timestamp;temperature;humidity
78315;SHT31;68596;52.080;4.662;2023-08-24T00:00:56;20.69;70.07
78315;SHT31;68596;52.080;4.662;2023-08-24T00:03:40;20.67;70.29
78315;SHT31;68596;52.080;4.662;2023-08-24T00:06:24;20.69;70.15
78315;SHT31;68596;52.080;4.662;2023-08-24T00:09:08;20.67;70.28
78315;SHT31;68596;52.080;4.662;2023-08-24T00:11:52;20.66;70.27
78315;SHT31;68596;52.080;4.662;2023-08-24T00:14:37;20.66;70.56
78315;SHT31;68596;52.080;4.662;2023-08-24T00:17:21;20.67;70.15
78315;SHT31;68596;52.080;4.662;2023-08-24T00:20:07;20.67;70.22
78315;SHT31;68596;52.080;4.662;2023-08-24T00:22:54;20.63;70.30
78315;SHT31;68596;52.080;4.662;2023-08-24T00:25:38;20.61;70.04
78315;SHT31;68596;52.080;4.662;2023-08-24T00:28:25;20.63;70.25
78315;SHT31;68596;52.080;4.662;2023-08-24T00:31:09;20.64;70.23
78315;SHT31;68596;52.080;4.662;2023-08-24T00:33:53;20.64;70.13
78315;SHT31;68596;52.080;4.662;2023-08-24T00:36:38;20.66;70.17
78315;SHT31;68596;52.080;4.662;2023-08-24T00:39:22;20.66;70.22
78315;SHT31;68596;52.080;4.662;2023-08-24T00:42:06;20.67;70.38
78315;SHT31;68596;52.080;4.662;2023-08-24T00:44:51;20.67;70.32
78315;SHT31;68596;52.080;4.662;2023-08-24T00:47:36;20.69;70.42
78315;SHT31;68596;52.080;4.662;2023-08-24T00:50:21;20.66;70.42
78315;SHT31;68596;52.080;4.662;2023-08-24T00:53:06;20.64;70.39
78315;SHT31;68596;52.080;4.662;2023-08-24T00:55:50;20.61;70.46
78315;SHT31;68596;52.080;4.662;2023-08-24T00:58:35;20.64;70.30
78315;SHT31;68596;52.080;4.662;2023-08-24T01:01:19;20.64;70.39
78315;SHT31;68596;52.080;4.662;2023-08-24T01:04:04;20.66;70.42
78315;SHT31;68596;52.080;4.662;2023-08-24T01:06:48;20.67;70.42
78315;SHT31;68596;52.080;4.662;2023-08-24T01:09:32;20.61;70.59
78315;SHT31;68596;52.080;4.662;2023-08-24T01:12:28;20.57;70.73
78315;SHT31;68596;52.080;4.662;2023-08-24T01:18:35;20.57;70.43
78315;SHT31;68596;52.080;4.662;2023-08-24T01:21:20;20.61;70.32
78315;SHT31;68596;52.080;4.662;2023-08-24T01:24:16;20.64;70.25
78315;SHT31;68596;52.080;4.662;2023-08-24T01:27:03;20.69;70.14
78315;SHT31;68596;52.080;4.662;2023-08-24T01:29:49;20.69;70.13
78315;SHT31;68596;52.080;4.662;2023-08-24T01:32:35;20.69;70.11
78315;SHT31;68596;52.080;4.662;2023-08-24T01:35:19;20.69;70.10
78315;SHT31;68596;52.080;4.662;2023-08-24T01:38:04;20.69;70.31
78315;SHT31;68596;52.080;4.662;2023-08-24T01:41:02;20.67;70.59
78315;SHT31;68596;52.080;4.662;2023-08-24T01:43:53;20.64;70.62
78315;SHT31;68596;52.080;4.662;2023-08-24T01:46:39;20.61;70.47
78315;SHT31;68596;52.080;4.662;2023-08-24T01:49:25;20.61;70.92
78315;SHT31;68596;52.080;4.662;2023-08-24T01:52:12;20.59;70.92
78315;SHT31;68596;52.080;4.662;2023-08-24T01:54:57;20.57;70.64
78315;SHT31;68596;52.080;4.662;2023-08-24T01:57:41;20.61;70.56
78315;SHT31;68596;52.080;4.662;2023-08-24T02:00:25;20.64;70.51
78315;SHT31;68596;52.080;4.662;2023-08-24T02:03:10;20.56;70.53
78315;SHT31;68596;52.080;4.662;2023-08-24T02:05:54;20.54;70.70
78315;SHT31;68596;52.080;4.662;2023-08-24T02:08:38;20.57;70.77
78315;SHT31;68596;52.080;4.662;2023-08-24T02:11:23;20.54;70.77
78315;SHT31;68596;52.080;4.662;2023-08-24T02:14:07;20.54;70.87
78315;SHT31;68596;52.080;4.662;2023-08-24T02:16:51;20.50;70.93
78315;SHT31;68596;52.080;4.662;2023-08-24T02:19:35;20.53;70.66
78315;SHT31;68596;52.080;4.662;2023-08-24T02:22:19;20.54;70.75
78315;SHT31;68596;52.080;4.662;2023-08-24T02:25:05;20.54;70.65
78315;SHT31;68596;52.080;4.662;2023-08-24T02:27:49;20.54;70.70
78315;SHT31;68596;52.080;4.662;2023-08-24T02:30:37;20.47;70.72
78315;SHT31;68596;52.080;4.662;2023-08-24T02:33:21;20.40;70.97
78315;SHT31;68596;52.080;4.662;2023-08-24T02:36:05;20.37;71.14
78315;SHT31;68596;52.080;4.662;2023-08-24T02:38:50;20.33;71.26
78315;SHT31;68596;52.080;4.662;2023-08-24T02:41:34;20.32;71.35
78315;SHT31;68596;52.080;4.662;2023-08-24T02:44:19;20.34;71.26
78315;SHT31;68596;52.080;4.662;2023-08-24T02:47:04;20.33;71.37
78315;SHT31;68596;52.080;4.662;2023-08-24T02:49:48;20.34;71.26
78315;SHT31;68596;52.080;4.662;2023-08-24T02:52:32;20.36;71.35
78315;SHT31;68596;52.080;4.662;2023-08-24T02:55:16;20.36;71.31
78315;SHT31;68596;52.080;4.662;2023-08-24T02:58:04;20.37;71.34
78315;SHT31;68596;52.080;4.662;2023-08-24T03:00:48;20.36;71.34
78315;SHT31;68596;52.080;4.662;2023-08-24T03:03:33;20.36;71.45
78315;SHT31;68596;52.080;4.662;2023-08-24T03:06:17;20.33;71.64
78315;SHT31;68596;52.080;4.662;2023-08-24T03:09:02;20.33;71.68
78315;SHT31;68596;52.080;4.662;2023-08-24T03:11:49;20.32;71.68
78315;SHT31;68596;52.080;4.662;2023-08-24T03:14:33;20.30;71.88
78315;SHT31;68596;52.080;4.662;2023-08-24T03:17:18;20.30;71.89
78315;SHT31;68596;52.080;4.662;2023-08-24T03:20:03;20.32;71.75
78315;SHT31;68596;52.080;4.662;2023-08-24T03:22:47;20.25;71.88
78315;SHT31;68596;52.080;4.662;2023-08-24T03:25:36;20.26;72.08
78315;SHT31;68596;52.080;4.662;2023-08-24T03:28:21;20.25;72.10
78315;SHT31;68596;52.080;4.662;2023-08-24T03:31:06;20.25;71.91
78315;SHT31;68596;52.080;4.662;2023-08-24T03:33:50;20.23;71.86
78315;SHT31;68596;52.080;4.662;2023-08-24T03:36:34;20.23;72.09
78315;SHT31;68596;52.080;4.662;2023-08-24T03:39:18;20.23;72.09
78315;SHT31;68596;52.080;4.662;2023-08-24T03:42:02;20.20;72.13
78315;SHT31;68596;52.080;4.662;2023-08-24T03:44:46;20.20;72.13
78315;SHT31;68596;52.080;4.662;2023-08-24T03:47:31;20.20;72.13
78315;SHT31;68596;52.080;4.662;2023-08-24T03:50:16;20.19;72.07
78315;SHT31;68596;52.080;4.662;2023-08-24T03:53:03;20.23;72.26
78315;SHT31;68596;52.080;4.662;2023-08-24T03:55:51;20.19;72.30
78315;SHT31;68596;52.080;4.662;2023-08-24T03:58:36;20.19;72.22
78315;SHT31;68596;52.080;4.662;2023-08-24T04:01:21;20.20;72.21
78315;SHT31;68596;52.080;4.662;2023-08-24T04:04:06;20.22;72.17
78315;SHT31;68596;52.080;4.662;2023-08-24T04:06:50;20.18;72.20
78315;SHT31;68596;52.080;4.662;2023-08-24T04:09:34;20.18;72.11
78315;SHT31;68596;52.080;4.662;2023-08-24T04:12:18;20.15;72.17
78315;SHT31;68596;52.080;4.662;2023-08-24T04:15:02;20.18;72.19
78315;SHT31;68596;52.080;4.662;2023-08-24T04:17:47;20.15;72.22
78315;SHT31;68596;52.080;4.662;2023-08-24T04:20:31;20.13;72.25
78315;SHT31;68596;52.080;4.662;2023-08-24T04:23:15;20.10;72.20
78315;SHT31;68596;52.080;4.662;2023-08-24T04:26:01;20.12;72.23
78315;SHT31;68596;52.080;4.662;2023-08-24T04:28:45;20.12;72.38
78315;SHT31;68596;52.080;4.662;2023-08-24T04:31:29;20.09;72.46
78315;SHT31;68596;52.080;4.662;2023-08-24T04:34:13;20.10;72.44
78315;SHT31;68596;52.080;4.662;2023-08-24T04:36:57;20.12;72.60
78315;SHT31;68596;52.080;4.662;2023-08-24T04:39:41;20.10;72.59
78315;SHT31;68596;52.080;4.662;2023-08-24T04:42:25;20.10;72.56
78315;SHT31;68596;52.080;4.662;2023-08-24T04:45:09;20.09;72.58
78315;SHT31;68596;52.080;4.662;2023-08-24T04:47:53;20.09;72.56
78315;SHT31;68596;52.080;4.662;2023-08-24T04:50:38;20.06;72.74
78315;SHT31;68596;52.080;4.662;2023-08-24T04:53:22;20.06;72.74
78315;SHT31;68596;52.080;4.662;2023-08-24T04:56:07;20.08;72.68
78315;SHT31;68596;52.080;4.662;2023-08-24T04:58:55;20.08;72.69
78315;SHT31;68596;52.080;4.662;2023-08-24T05:01:40;20.09;72.62
78315;SHT31;68596;52.080;4.662;2023-08-24T05:04:24;20.05;72.66
78315;SHT31;68596;52.080;4.662;2023-08-24T05:07:08;20.04;72.69
78315;SHT31;68596;52.080;4.662;2023-08-24T05:09:53;20.02;72.70
78315;SHT31;68596;52.080;4.662;2023-08-24T05:12:37;20.04;72.79
78315;SHT31;68596;52.080;4.662;2023-08-24T05:15:22;20.04;72.72
78315;SHT31;68596;52.080;4.662;2023-08-24T05:18:05;20.06;72.85
78315;SHT31;68596;52.080;4.662;2023-08-24T05:20:50;20.05;72.84
78315;SHT31;68596;52.080;4.662;2023-08-24T05:23:35;20.05;72.69
78315;SHT31;68596;52.080;4.662;2023-08-24T05:26:19;20.06;72.61
78315;SHT31;68596;52.080;4.662;2023-08-24T05:29:06;20.10;72.49
78315;SHT31;68596;52.080;4.662;2023-08-24T05:31:50;20.15;72.32
78315;SHT31;68596;52.080;4.662;2023-08-24T05:34:34;20.16;72.35
78315;SHT31;68596;52.080;4.662;2023-08-24T05:37:18;20.18;72.52
78315;SHT31;68596;52.080;4.662;2023-08-24T05:40:03;20.20;72.44
78315;SHT31;68596;52.080;4.662;2023-08-24T05:42:49;20.23;72.42
78315;SHT31;68596;52.080;4.662;2023-08-24T05:45:33;20.26;72.09
78315;SHT31;68596;52.080;4.662;2023-08-24T05:48:17;20.30;71.82
78315;SHT31;68596;52.080;4.662;2023-08-24T05:51:01;20.33;71.77
78315;SHT31;68596;52.080;4.662;2023-08-24T05:53:45;20.36;71.69
78315;SHT31;68596;52.080;4.662;2023-08-24T05:56:29;20.40;71.54
78315;SHT31;68596;52.080;4.662;2023-08-24T05:59:15;20.40;71.37
78315;SHT31;68596;52.080;4.662;2023-08-24T06:01:59;20.46;72.21
78315;SHT31;68596;52.080;4.662;2023-08-24T06:04:45;20.47;71.36
78315;SHT31;68596;52.080;4.662;2023-08-24T06:07:31;20.51;71.32
78315;SHT31;68596;52.080;4.662;2023-08-24T06:10:15;20.53;71.24
78315;SHT31;68596;52.080;4.662;2023-08-24T06:12:59;20.56;71.32
78315;SHT31;68596;52.080;4.662;2023-08-24T06:15:45;20.61;71.05
78315;SHT31;68596;52.080;4.662;2023-08-24T06:18:29;20.66;71.16
78315;SHT31;68596;52.080;4.662;2023-08-24T06:21:13;20.69;71.35
78315;SHT31;68596;52.080;4.662;2023-08-24T06:23:58;20.74;71.04
78315;SHT31;68596;52.080;4.662;2023-08-24T06:26:42;20.76;71.28
78315;SHT31;68596;52.080;4.662;2023-08-24T06:29:28;20.79;71.66
78315;SHT31;68596;52.080;4.662;2023-08-24T06:32:12;20.83;71.12
78315;SHT31;68596;52.080;4.662;2023-08-24T06:34:56;20.85;71.35
78315;SHT31;68596;52.080;4.662;2023-08-24T06:37:42;20.88;71.28
78315;SHT31;68596;52.080;4.662;2023-08-24T06:40:26;20.97;72.79
78315;SHT31;68596;52.080;4.662;2023-08-24T06:43:10;20.97;71.71
78315;SHT31;68596;52.080;4.662;2023-08-24T06:45:55;21.01;71.63
78315;SHT31;68596;52.080;4.662;2023-08-24T06:48:39;21.04;71.48
78315;SHT31;68596;52.080;4.662;2023-08-24T06:51:26;21.12;71.99
78315;SHT31;68596;52.080;4.662;2023-08-24T06:54:10;21.14;72.04
78315;SHT31;68596;52.080;4.662;2023-08-24T06:56:54;21.22;72.61
78315;SHT31;68596;52.080;4.662;2023-08-24T06:59:38;21.24;72.36
78315;SHT31;68596;52.080;4.662;2023-08-24T07:02:23;21.30;72.72
78315;SHT31;68596;52.080;4.662;2023-08-24T07:05:07;21.39;72.52
78315;SHT31;68596;52.080;4.662;2023-08-24T07:07:52;21.42;72.13
78315;SHT31;68596;52.080;4.662;2023-08-24T07:10:37;21.45;72.10
78315;SHT31;68596;52.080;4.662;2023-08-24T07:13:22;21.51;72.66
78315;SHT31;68596;52.080;4.662;2023-08-24T07:16:06;21.56;72.12
78315;SHT31;68596;52.080;4.662;2023-08-24T07:18:51;21.59;71.89
78315;SHT31;68596;52.080;4.662;2023-08-24T07:21:35;21.63;71.83
78315;SHT31;68596;52.080;4.662;2023-08-24T07:24:19;21.69;72.18
78315;SHT31;68596;52.080;4.662;2023-08-24T07:27:04;21.75;72.11
78315;SHT31;68596;52.080;4.662;2023-08-24T07:29:48;21.81;71.70
78315;SHT31;68596;52.080;4.662;2023-08-24T07:32:32;21.83;71.77
78315;SHT31;68596;52.080;4.662;2023-08-24T07:35:17;21.90;71.60
78315;SHT31;68596;52.080;4.662;2023-08-24T07:38:01;21.95;71.65
78315;SHT31;68596;52.080;4.662;2023-08-24T07:40:46;22.00;71.64
78315;SHT31;68596;52.080;4.662;2023-08-24T07:43:32;22.03;71.34
78315;SHT31;68596;52.080;4.662;2023-08-24T07:46:16;22.05;71.12
78315;SHT31;68596;52.080;4.662;2023-08-24T07:49:01;22.06;71.31
78315;SHT31;68596;52.080;4.662;2023-08-24T07:51:45;22.09;71.34
78315;SHT31;68596;52.080;4.662;2023-08-24T07:54:31;22.16;71.29
78315;SHT31;68596;52.080;4.662;2023-08-24T07:57:15;22.18;71.24
78315;SHT31;68596;52.080;4.662;2023-08-24T07:59:59;22.21;70.89
78315;SHT31;68596;52.080;4.662;2023-08-24T08:02:43;22.26;70.83
78315;SHT31;68596;52.080;4.662;2023-08-24T08:05:27;22.26;70.74
78315;SHT31;68596;52.080;4.662;2023-08-24T08:08:13;22.30;70.96
78315;SHT31;68596;52.080;4.662;2023-08-24T08:11:02;22.35;70.96
78315;SHT31;68596;52.080;4.662;2023-08-24T08:13:46;22.37;71.08
78315;SHT31;68596;52.080;4.662;2023-08-24T08:16:31;22.41;70.98
78315;SHT31;68596;52.080;4.662;2023-08-24T08:19:15;22.43;70.91
78315;SHT31;68596;52.080;4.662;2023-08-24T08:21:59;22.44;71.16
78315;SHT31;68596;52.080;4.662;2023-08-24T08:24:43;22.47;71.13
78315;SHT31;68596;52.080;4.662;2023-08-24T08:27:27;22.53;70.95
78315;SHT31;68596;52.080;4.662;2023-08-24T08:30:11;22.56;70.91
78315;SHT31;68596;52.080;4.662;2023-08-24T08:32:56;22.58;70.75
78315;SHT31;68596;52.080;4.662;2023-08-24T08:35:40;22.60;70.73
78315;SHT31;68596;52.080;4.662;2023-08-24T08:38:24;22.63;70.84
78315;SHT31;68596;52.080;4.662;2023-08-24T08:41:12;22.64;70.89
78315;SHT31;68596;52.080;4.662;2023-08-24T08:43:57;22.68;71.07
78315;SHT31;68596;52.080;4.662;2023-08-24T08:46:44;22.75;70.91
78315;SHT31;68596;52.080;4.662;2023-08-24T08:49:31;22.78;70.92
78315;SHT31;68596;52.080;4.662;2023-08-24T08:52:15;22.83;70.75
78315;SHT31;68596;52.080;4.662;2023-08-24T08:55:02;22.88;70.77
78315;SHT31;68596;52.080;4.662;2023-08-24T08:57:53;22.92;70.60
78315;SHT31;68596;52.080;4.662;2023-08-24T09:00:42;22.95;70.51
78315;SHT31;68596;52.080;4.662;2023-08-24T09:03:29;22.98;70.73
78315;SHT31;68596;52.080;4.662;2023-08-24T09:06:15;23.01;70.73
78315;SHT31;68596;52.080;4.662;2023-08-24T09:09:01;23.07;70.92
78315;SHT31;68596;52.080;4.662;2023-08-24T09:11:46;23.11;71.25
78315;SHT31;68596;52.080;4.662;2023-08-24T09:14:31;23.18;71.02
78315;SHT31;68596;52.080;4.662;2023-08-24T09:17:22;23.22;70.72
78315;SHT31;68596;52.080;4.662;2023-08-24T09:20:07;23.22;70.54
78315;SHT31;68596;52.080;4.662;2023-08-24T09:22:51;23.23;70.37
78315;SHT31;68596;52.080;4.662;2023-08-24T09:25:47;23.25;70.33
78315;SHT31;68596;52.080;4.662;2023-08-24T09:28:33;23.26;70.56
78315;SHT31;68596;52.080;4.662;2023-08-24T09:31:22;23.31;70.59
78315;SHT31;68596;52.080;4.662;2023-08-24T09:34:07;23.31;70.45
78315;SHT31;68596;52.080;4.662;2023-08-24T09:36:51;23.33;70.41
78315;SHT31;68596;52.080;4.662;2023-08-24T09:39:35;23.37;70.65
78315;SHT31;68596;52.080;4.662;2023-08-24T09:42:24;23.37;70.56
78315;SHT31;68596;52.080;4.662;2023-08-24T09:45:14;23.37;70.76
78315;SHT31;68596;52.080;4.662;2023-08-24T09:48:00;23.39;70.55
78315;SHT31;68596;52.080;4.662;2023-08-24T09:50:46;23.41;70.61
78315;SHT31;68596;52.080;4.662;2023-08-24T09:53:33;23.42;70.58
78315;SHT31;68596;52.080;4.662;2023-08-24T09:56:25;23.43;70.58
78315;SHT31;68596;52.080;4.662;2023-08-24T09:59:15;23.43;70.59
78315;SHT31;68596;52.080;4.662;2023-08-24T10:02:14;23.48;70.69
78315;SHT31;68596;52.080;4.662;2023-08-24T10:05:01;23.49;71.03
78315;SHT31;68596;52.080;4.662;2023-08-24T10:07:52;23.48;70.80
78315;SHT31;68596;52.080;4.662;2023-08-24T10:10:39;23.50;71.59
78315;SHT31;68596;52.080;4.662;2023-08-24T10:13:55;23.50;71.70
78315;SHT31;68596;52.080;4.662;2023-08-24T10:16:43;23.52;71.61
78315;SHT31;68596;52.080;4.662;2023-08-24T10:19:29;23.53;71.66
78315;SHT31;68596;52.080;4.662;2023-08-24T10:22:15;23.53;71.26
78315;SHT31;68596;52.080;4.662;2023-08-24T10:24:59;23.55;71.20
78315;SHT31;68596;52.080;4.662;2023-08-24T10:27:44;23.56;71.38
78315;SHT31;68596;52.080;4.662;2023-08-24T10:30:31;23.58;71.30
78315;SHT31;68596;52.080;4.662;2023-08-24T10:33:18;23.58;71.40
78315;SHT31;68596;52.080;4.662;2023-08-24T10:36:06;23.62;71.56
78315;SHT31;68596;52.080;4.662;2023-08-24T10:38:55;23.60;71.56
78315;SHT31;68596;52.080;4.662;2023-08-24T10:41:47;23.66;72.40
78315;SHT31;68596;52.080;4.662;2023-08-24T10:44:36;23.70;71.69
78315;SHT31;68596;52.080;4.662;2023-08-24T10:47:23;23.72;72.49
78315;SHT31;68596;52.080;4.662;2023-08-24T10:50:09;23.79;71.75
78315;SHT31;68596;52.080;4.662;2023-08-24T10:52:54;23.83;71.72
78315;SHT31;68596;52.080;4.662;2023-08-24T10:55:38;23.86;71.51
78315;SHT31;68596;52.080;4.662;2023-08-24T10:58:22;23.89;71.69
78315;SHT31;68596;52.080;4.662;2023-08-24T11:01:07;23.97;71.97
78315;SHT31;68596;52.080;4.662;2023-08-24T11:03:57;23.97;71.32
78315;SHT31;68596;52.080;4.662;2023-08-24T11:07:15;23.97;71.04
78315;SHT31;68596;52.080;4.662;2023-08-24T11:10:11;24.00;70.98
78315;SHT31;68596;52.080;4.662;2023-08-24T11:13:15;24.02;71.69
78315;SHT31;68596;52.080;4.662;2023-08-24T11:16:01;24.00;71.84
78315;SHT31;68596;52.080;4.662;2023-08-24T11:18:50;23.97;71.41
78315;SHT31;68596;52.080;4.662;2023-08-24T11:21:35;23.94;71.55
78315;SHT31;68596;52.080;4.662;2023-08-24T11:24:20;23.90;71.54
78315;SHT31;68596;52.080;4.662;2023-08-24T11:27:03;23.89;71.66
78315;SHT31;68596;52.080;4.662;2023-08-24T11:29:59;23.92;71.76
78315;SHT31;68596;52.080;4.662;2023-08-24T11:32:43;23.90;71.78
78315;SHT31;68596;52.080;4.662;2023-08-24T11:35:29;23.92;71.79
78315;SHT31;68596;52.080;4.662;2023-08-24T11:38:13;23.90;71.85
78315;SHT31;68596;52.080;4.662;2023-08-24T11:40:57;23.90;71.75
78315;SHT31;68596;52.080;4.662;2023-08-24T11:43:46;23.90;71.65
78315;SHT31;68596;52.080;4.662;2023-08-24T11:46:32;23.93;71.62
78315;SHT31;68596;52.080;4.662;2023-08-24T11:49:16;23.92;71.49
78315;SHT31;68596;52.080;4.662;2023-08-24T11:52:01;23.92;71.52
78315;SHT31;68596;52.080;4.662;2023-08-24T11:54:46;23.89;71.64
78315;SHT31;68596;52.080;4.662;2023-08-24T11:57:33;23.89;71.83
78315;SHT31;68596;52.080;4.662;2023-08-24T12:00:21;23.87;71.65
78315;SHT31;68596;52.080;4.662;2023-08-24T12:03:06;23.87;71.68
78315;SHT31;68596;52.080;4.662;2023-08-24T12:05:50;23.89;71.78
78315;SHT31;68596;52.080;4.662;2023-08-24T12:08:38;23.87;71.83
78315;SHT31;68596;52.080;4.662;2023-08-24T12:11:23;23.89;71.91
78315;SHT31;68596;52.080;4.662;2023-08-24T12:14:17;23.90;71.77
78315;SHT31;68596;52.080;4.662;2023-08-24T12:17:06;23.90;71.89
78315;SHT31;68596;52.080;4.662;2023-08-24T12:19:59;23.92;71.82
78315;SHT31;68596;52.080;4.662;2023-08-24T12:22:51;23.94;71.88
78315;SHT31;68596;52.080;4.662;2023-08-24T12:25:42;23.93;71.75
78315;SHT31;68596;52.080;4.662;2023-08-24T12:28:29;23.93;72.09
78315;SHT31;68596;52.080;4.662;2023-08-24T12:31:14;23.97;72.06
78315;SHT31;68596;52.080;4.662;2023-08-24T12:34:03;24.00;72.03
78315;SHT31;68596;52.080;4.662;2023-08-24T12:36:48;24.03;72.04
78315;SHT31;68596;52.080;4.662;2023-08-24T12:39:36;24.10;72.41
78315;SHT31;68596;52.080;4.662;2023-08-24T12:42:21;24.13;72.14
78315;SHT31;68596;52.080;4.662;2023-08-24T12:45:05;24.20;71.38
78315;SHT31;68596;52.080;4.662;2023-08-24T12:47:49;24.24;71.36
78315;SHT31;68596;52.080;4.662;2023-08-24T12:50:34;24.23;71.42
78315;SHT31;68596;52.080;4.662;2023-08-24T12:53:19;24.25;71.36
78315;SHT31;68596;52.080;4.662;2023-08-24T12:56:03;24.30;71.48
78315;SHT31;68596;52.080;4.662;2023-08-24T12:58:47;24.34;71.60
78315;SHT31;68596;52.080;4.662;2023-08-24T13:01:31;24.35;71.54
78315;SHT31;68596;52.080;4.662;2023-08-24T13:04:15;24.41;71.02
78315;SHT31;68596;52.080;4.662;2023-08-24T13:06:59;24.50;70.99
78315;SHT31;68596;52.080;4.662;2023-08-24T13:09:43;24.47;70.90
78315;SHT31;68596;52.080;4.662;2023-08-24T13:12:27;24.47;71.29
78315;SHT31;68596;52.080;4.662;2023-08-24T13:15:11;24.45;71.43
78315;SHT31;68596;52.080;4.662;2023-08-24T13:17:56;24.48;71.40
78315;SHT31;68596;52.080;4.662;2023-08-24T13:20:40;24.50;71.47
78315;SHT31;68596;52.080;4.662;2023-08-24T13:23:25;24.54;71.75
78315;SHT31;68596;52.080;4.662;2023-08-24T13:26:17;24.60;71.36
78315;SHT31;68596;52.080;4.662;2023-08-24T13:29:03;24.61;71.34
78315;SHT31;68596;52.080;4.662;2023-08-24T13:31:48;24.63;71.22
78315;SHT31;68596;52.080;4.662;2023-08-24T13:34:32;24.65;71.19
78315;SHT31;68596;52.080;4.662;2023-08-24T13:37:18;24.68;71.27
78315;SHT31;68596;52.080;4.662;2023-08-24T13:40:02;24.69;71.04
78315;SHT31;68596;52.080;4.662;2023-08-24T13:42:47;24.72;71.06
78315;SHT31;68596;52.080;4.662;2023-08-24T13:45:32;24.74;71.08
78315;SHT31;68596;52.080;4.662;2023-08-24T13:48:18;24.74;71.33
78315;SHT31;68596;52.080;4.662;2023-08-24T13:51:02;24.79;71.55
78315;SHT31;68596;52.080;4.662;2023-08-24T13:53:47;24.84;71.44
78315;SHT31;68596;52.080;4.662;2023-08-24T13:56:31;24.86;71.50
78315;SHT31;68596;52.080;4.662;2023-08-24T13:59:15;24.88;71.33
78315;SHT31;68596;52.080;4.662;2023-08-24T14:02:01;24.89;71.28
78315;SHT31;68596;52.080;4.662;2023-08-24T14:04:45;24.92;71.34
78315;SHT31;68596;52.080;4.662;2023-08-24T14:07:31;24.95;71.57
78315;SHT31;68596;52.080;4.662;2023-08-24T14:10:15;24.99;71.21
78315;SHT31;68596;52.080;4.662;2023-08-24T14:12:59;24.98;71.21
78315;SHT31;68596;52.080;4.662;2023-08-24T14:15:43;25.02;71.71
78315;SHT31;68596;52.080;4.662;2023-08-24T14:18:27;25.04;71.35
78315;SHT31;68596;52.080;4.662;2023-08-24T14:21:12;25.06;71.29
78315;SHT31;68596;52.080;4.662;2023-08-24T14:23:56;25.09;70.99
78315;SHT31;68596;52.080;4.662;2023-08-24T14:26:40;25.12;70.58
78315;SHT31;68596;52.080;4.662;2023-08-24T14:29:29;25.14;70.56
78315;SHT31;68596;52.080;4.662;2023-08-24T14:32:13;25.15;69.76
78315;SHT31;68596;52.080;4.662;2023-08-24T14:34:57;25.20;70.06
78315;SHT31;68596;52.080;4.662;2023-08-24T14:37:41;25.23;70.17
78315;SHT31;68596;52.080;4.662;2023-08-24T14:40:26;25.26;69.71
78315;SHT31;68596;52.080;4.662;2023-08-24T14:43:09;25.27;69.88
78315;SHT31;68596;52.080;4.662;2023-08-24T14:45:54;25.32;69.67
78315;SHT31;68596;52.080;4.662;2023-08-24T14:48:39;25.32;69.29
78315;SHT31;68596;52.080;4.662;2023-08-24T14:51:23;25.33;69.66
78315;SHT31;68596;52.080;4.662;2023-08-24T14:54:07;25.36;69.53
78315;SHT31;68596;52.080;4.662;2023-08-24T14:56:51;25.37;69.08
78315;SHT31;68596;52.080;4.662;2023-08-24T14:59:36;25.45;69.05
78315;SHT31;68596;52.080;4.662;2023-08-24T15:02:20;25.51;69.33
78315;SHT31;68596;52.080;4.662;2023-08-24T15:05:04;25.53;69.18
78315;SHT31;68596;52.080;4.662;2023-08-24T15:07:49;25.60;68.54
78315;SHT31;68596;52.080;4.662;2023-08-24T15:10:33;25.62;69.17
78315;SHT31;68596;52.080;4.662;2023-08-24T15:13:17;25.63;68.80
78315;SHT31;68596;52.080;4.662;2023-08-24T15:16:01;25.65;68.76
78315;SHT31;68596;52.080;4.662;2023-08-24T15:18:46;25.67;68.26
78315;SHT31;68596;52.080;4.662;2023-08-24T15:21:31;25.66;68.31
78315;SHT31;68596;52.080;4.662;2023-08-24T15:24:15;25.69;68.87
78315;SHT31;68596;52.080;4.662;2023-08-24T15:26:59;25.73;68.55
78315;SHT31;68596;52.080;4.662;2023-08-24T15:29:43;25.74;68.67
78315;SHT31;68596;52.080;4.662;2023-08-24T15:32:27;25.78;68.26
78315;SHT31;68596;52.080;4.662;2023-08-24T15:35:11;25.80;68.37
78315;SHT31;68596;52.080;4.662;2023-08-24T15:37:55;25.78;68.42
78315;SHT31;68596;52.080;4.662;2023-08-24T15:40:39;25.76;68.59
78315;SHT31;68596;52.080;4.662;2023-08-24T15:43:24;25.77;68.42
78315;SHT31;68596;52.080;4.662;2023-08-24T15:46:08;25.78;68.75
78315;SHT31;68596;52.080;4.662;2023-08-24T15:48:52;25.80;68.99
78315;SHT31;68596;52.080;4.662;2023-08-24T15:51:39;25.77;68.08
78315;SHT31;68596;52.080;4.662;2023-08-24T15:54:23;25.78;67.27
78315;SHT31;68596;52.080;4.662;2023-08-24T15:57:08;25.83;66.41
78315;SHT31;68596;52.080;4.662;2023-08-24T15:59:53;25.81;66.15
78315;SHT31;68596;52.080;4.662;2023-08-24T16:02:38;25.84;65.85
78315;SHT31;68596;52.080;4.662;2023-08-24T16:05:23;25.86;66.32
78315;SHT31;68596;52.080;4.662;2023-08-24T16:08:06;25.88;66.99
78315;SHT31;68596;52.080;4.662;2023-08-24T16:10:54;25.90;66.81
78315;SHT31;68596;52.080;4.662;2023-08-24T16:13:39;25.90;66.53
78315;SHT31;68596;52.080;4.662;2023-08-24T16:16:24;25.91;66.94
78315;SHT31;68596;52.080;4.662;2023-08-24T16:19:08;25.91;66.96
78315;SHT31;68596;52.080;4.662;2023-08-24T16:21:52;25.91;66.87
78315;SHT31;68596;52.080;4.662;2023-08-24T16:24:36;25.93;67.20
78315;SHT31;68596;52.080;4.662;2023-08-24T16:27:20;25.91;66.90
78315;SHT31;68596;52.080;4.662;2023-08-24T16:30:06;25.96;65.54
78315;SHT31;68596;52.080;4.662;2023-08-24T16:32:50;25.91;65.92
78315;SHT31;68596;52.080;4.662;2023-08-24T16:35:35;25.93;66.28
78315;SHT31;68596;52.080;4.662;2023-08-24T16:38:18;25.90;66.80
78315;SHT31;68596;52.080;4.662;2023-08-24T16:41:03;25.93;65.61
78315;SHT31;68596;52.080;4.662;2023-08-24T16:43:47;25.88;66.67
78315;SHT31;68596;52.080;4.662;2023-08-24T16:46:31;25.87;66.96
78315;SHT31;68596;52.080;4.662;2023-08-24T16:49:15;25.90;67.20
78315;SHT31;68596;52.080;4.662;2023-08-24T16:52:01;25.87;67.54
78315;SHT31;68596;52.080;4.662;2023-08-24T16:54:45;25.84;67.74
78315;SHT31;68596;52.080;4.662;2023-08-24T16:57:29;25.84;67.85
78315;SHT31;68596;52.080;4.662;2023-08-24T17:00:14;25.80;67.74
78315;SHT31;68596;52.080;4.662;2023-08-24T17:02:58;25.78;67.99
78315;SHT31;68596;52.080;4.662;2023-08-24T17:05:42;25.73;67.58
78315;SHT31;68596;52.080;4.662;2023-08-24T17:08:26;25.76;68.04
78315;SHT31;68596;52.080;4.662;2023-08-24T17:11:10;25.71;67.81
78315;SHT31;68596;52.080;4.662;2023-08-24T17:13:54;25.67;67.43
78315;SHT31;68596;52.080;4.662;2023-08-24T17:16:39;25.63;67.64
78315;SHT31;68596;52.080;4.662;2023-08-24T17:19:23;25.60;67.86
78315;SHT31;68596;52.080;4.662;2023-08-24T17:22:07;25.59;67.58
78315;SHT31;68596;52.080;4.662;2023-08-24T17:24:51;25.56;67.67
78315;SHT31;68596;52.080;4.662;2023-08-24T17:27:36;25.53;67.68